createdAt,value
2018-05-04T08:23:20.718Z,16.70
2018-05-04T08:25:48.186Z,16.80
2018-05-04T08:28:15.656Z,16.80
2018-05-04T08:30:43.173Z,17.10
2018-05-04T08:33:10.645Z,17.20
2018-05-04T08:35:38.104Z,17.50
2018-05-04T08:38:05.559Z,17.90
2018-05-04T08:40:33.134Z,17.90
2018-05-04T08:43:00.908Z,17.70
2018-05-04T08:45:28.402Z,18.00
2018-05-04T08:47:55.914Z,18.50
2018-05-04T08:50:23.372Z,18.90
2018-05-04T08:52:50.830Z,18.90
2018-05-04T08:55:18.287Z,18.80
2018-05-04T08:57:46.622Z,19.00
2018-05-04T09:00:14.094Z,19.00
2018-05-04T09:02:41.549Z,19.50
2018-05-04T09:05:09.090Z,18.90
2018-05-04T09:07:36.479Z,19.00
2018-05-04T09:10:04.716Z,19.00
2018-05-04T09:12:32.194Z,19.00
2018-05-04T09:15:00.401Z,18.80
2018-05-04T09:17:27.854Z,18.80
2018-05-04T09:19:55.395Z,19.00
2018-05-04T09:22:23.657Z,20.10
2018-05-04T09:24:51.138Z,20.10
2018-05-04T09:27:18.590Z,20.30
2018-05-04T09:29:46.053Z,19.90
2018-05-04T09:32:13.507Z,19.70
2018-05-04T09:34:40.975Z,20.10
2018-05-04T09:37:08.418Z,19.90
2018-05-04T09:39:35.882Z,20.40
2018-05-04T09:42:03.329Z,21.10
2018-05-04T09:44:30.793Z,21.50
2018-05-04T09:46:58.241Z,21.30
2018-05-04T09:49:25.703Z,21.70
2018-05-04T09:51:53.225Z,21.90
2018-05-04T09:54:20.691Z,21.20
2018-05-04T09:56:48.173Z,21.10
2018-05-04T09:59:16.419Z,20.70
2018-05-04T10:01:43.886Z,20.70
2018-05-04T10:04:11.384Z,20.50
2018-05-04T10:06:38.852Z,20.20
2018-05-04T10:09:06.371Z,20.40
2018-05-04T10:11:33.823Z,20.60
2018-05-04T10:14:01.286Z,20.00
2018-05-04T10:16:30.870Z,20.10
2018-05-04T10:18:59.217Z,19.90
2018-05-04T10:21:26.665Z,19.80
2018-05-04T10:23:54.132Z,19.80
2018-05-04T10:26:21.645Z,19.70
2018-05-04T10:28:49.163Z,19.60
2018-05-04T10:31:16.611Z,19.60
2018-05-04T10:33:44.066Z,19.70
2018-05-04T10:36:11.541Z,19.80
2018-05-04T10:38:39.152Z,19.90
2018-05-04T10:41:06.524Z,20.10
2018-05-04T10:43:33.972Z,20.20
2018-05-04T10:46:01.423Z,20.00
2018-05-04T10:48:28.879Z,19.80
2018-05-04T10:50:58.740Z,19.70
2018-05-04T10:53:26.200Z,19.70
2018-05-04T10:55:53.694Z,19.80
2018-05-04T10:58:21.171Z,20.10
2018-05-04T11:00:48.622Z,20.20
2018-05-04T11:03:16.106Z,20.40
2018-05-04T11:05:44.353Z,20.40
2018-05-04T11:08:11.839Z,20.40
2018-05-04T11:10:39.345Z,20.30
2018-05-04T11:13:06.799Z,20.40
2018-05-04T11:15:35.015Z,20.70
2018-05-04T11:18:03.257Z,20.50
2018-05-04T11:20:30.732Z,20.40
2018-05-04T11:22:58.185Z,20.50
2018-05-04T11:25:25.763Z,20.60
2018-05-04T11:27:53.144Z,20.70
2018-05-04T11:30:20.609Z,20.60
2018-05-04T11:32:48.079Z,20.80
2018-05-04T11:35:16.316Z,20.80
2018-05-04T11:37:43.785Z,20.70
2018-05-04T11:40:12.073Z,20.90
2018-05-04T11:42:39.574Z,20.90
2018-05-04T11:45:07.040Z,21.10
2018-05-04T11:47:35.298Z,20.40
2018-05-04T11:50:03.538Z,20.10
2018-05-04T11:52:31.032Z,20.10
2018-05-04T11:54:58.546Z,20.50
2018-05-04T11:57:26.020Z,20.50
2018-05-04T11:59:53.493Z,20.30
2018-05-04T12:02:21.003Z,20.40
2018-05-04T12:04:49.212Z,20.40
2018-05-04T12:07:16.658Z,20.40
2018-05-04T12:09:44.992Z,20.70
2018-05-04T12:12:12.454Z,20.70
2018-05-04T12:14:39.910Z,20.70
2018-05-04T12:17:07.374Z,20.80
2018-05-04T12:19:35.604Z,20.70
2018-05-04T12:22:03.125Z,20.70
2018-05-04T12:24:30.993Z,20.40
2018-05-04T12:26:58.437Z,20.40
2018-05-04T12:29:25.957Z,20.60
2018-05-04T12:31:54.143Z,20.50
2018-05-04T12:34:21.655Z,20.50
2018-05-04T12:36:49.117Z,20.70
2018-05-04T12:39:16.594Z,20.60
2018-05-04T12:41:44.043Z,20.50
2018-05-04T12:44:12.285Z,20.30
2018-05-04T12:46:39.914Z,20.30
2018-05-04T12:49:07.383Z,20.30
2018-05-04T12:51:34.907Z,20.20
2018-05-04T12:54:02.364Z,20.20
2018-05-04T12:56:29.834Z,20.50
2018-05-04T12:58:58.069Z,20.80
2018-05-04T13:01:25.554Z,20.80
2018-05-04T13:03:53.020Z,20.80
2018-05-04T13:06:20.550Z,20.60
2018-05-04T13:08:48.034Z,20.80
2018-05-04T13:11:15.517Z,20.80
2018-05-04T13:13:43.742Z,20.90
2018-05-04T13:16:11.197Z,20.90
2018-05-04T13:18:38.671Z,21.00
2018-05-04T13:21:06.206Z,21.20
2018-05-04T13:23:34.439Z,21.10
2018-05-04T13:26:01.917Z,21.00
2018-05-04T13:28:29.367Z,21.20
2018-05-04T13:30:56.823Z,21.20
2018-05-04T13:33:24.619Z,21.30
2018-05-04T13:35:52.713Z,21.10
2018-05-04T13:38:20.176Z,21.00
2018-05-04T13:40:47.661Z,21.00
2018-05-04T13:43:15.108Z,21.20
2018-05-04T13:45:42.604Z,21.50
2018-05-04T13:48:10.100Z,21.40
2018-05-04T13:50:37.550Z,21.50
2018-05-04T13:53:05.014Z,21.40
2018-05-04T13:55:33.284Z,21.50
2018-05-04T13:58:00.830Z,21.50
2018-05-04T14:00:28.396Z,21.70
2018-05-04T14:02:56.828Z,21.80
2018-05-04T14:05:24.336Z,21.50
2018-05-04T14:07:51.808Z,21.60
2018-05-04T14:10:19.286Z,21.30
2018-05-04T14:12:46.796Z,21.00
2018-05-04T14:15:14.193Z,21.10
2018-05-04T14:17:41.676Z,20.90
2018-05-04T14:20:09.149Z,20.80
2018-05-04T14:22:36.664Z,20.80
2018-05-04T14:25:04.110Z,20.80
2018-05-04T14:27:32.331Z,21.10
2018-05-04T14:29:59.833Z,21.00
2018-05-04T14:32:27.515Z,21.10
2018-05-04T14:34:55.191Z,21.10
2018-05-04T14:37:22.598Z,21.10
2018-05-04T14:39:50.710Z,21.10
2018-05-04T14:42:18.948Z,21.00
2018-05-04T14:44:46.416Z,21.00
2018-05-04T14:47:14.642Z,21.30
2018-05-04T14:49:42.902Z,21.30
2018-05-04T14:52:10.470Z,21.30
2018-05-04T14:54:37.935Z,21.30
2018-05-04T14:57:05.495Z,21.20
2018-05-04T14:59:32.992Z,21.10
2018-05-04T15:02:00.504Z,21.10
2018-05-04T15:04:28.015Z,21.10
2018-05-04T15:06:56.293Z,21.20
2018-05-04T15:09:23.751Z,21.20
2018-05-04T15:11:51.315Z,21.30
2018-05-04T15:14:18.707Z,21.40
2018-05-04T15:16:46.169Z,21.40
2018-05-04T15:19:13.628Z,21.50
2018-05-04T15:21:41.193Z,21.50
2018-05-04T15:24:08.642Z,21.50
2018-05-04T15:26:36.099Z,21.40
2018-05-04T15:29:03.554Z,21.60
2018-05-04T15:31:31.045Z,21.70
2018-05-04T15:33:58.524Z,21.50
2018-05-04T15:36:26.880Z,21.40
2018-05-04T15:38:54.344Z,21.40
2018-05-04T15:41:22.582Z,21.30
2018-05-04T15:43:50.057Z,21.30
2018-05-04T15:46:18.294Z,21.30
2018-05-04T15:48:51.462Z,21.30
2018-05-04T15:51:27.526Z,21.40
2018-05-04T15:53:55.018Z,21.40
2018-05-04T15:56:22.540Z,21.40
2018-05-04T15:58:50.042Z,21.40
2018-05-04T16:01:17.595Z,21.50
2018-05-04T16:03:45.864Z,21.30
2018-05-04T16:06:14.188Z,21.30
2018-05-04T16:08:41.824Z,21.40
2018-05-04T16:11:09.601Z,21.30
2018-05-04T16:13:37.505Z,21.40
2018-05-04T16:16:05.082Z,21.30
2018-05-04T16:18:32.715Z,21.30
2018-05-04T16:21:00.190Z,21.40
2018-05-04T16:23:27.687Z,21.40
2018-05-04T16:25:55.256Z,21.30
2018-05-04T16:28:22.748Z,21.30
2018-05-04T16:30:50.994Z,21.60
2018-05-04T16:33:18.480Z,21.50
2018-05-04T16:35:45.958Z,21.60
2018-05-04T16:38:13.545Z,21.50
2018-05-04T16:40:41.013Z,21.60
2018-05-04T16:43:08.532Z,21.50
2018-05-04T16:45:36.745Z,21.50
2018-05-04T16:48:09.826Z,21.40
2018-05-04T16:50:37.319Z,21.30
2018-05-04T16:53:05.567Z,21.10
2018-05-04T16:55:33.073Z,21.10
2018-05-04T16:58:00.537Z,21.10
2018-05-04T17:00:28.027Z,21.10
2018-05-04T17:02:55.491Z,21.10
2018-05-04T17:05:22.950Z,21.20
2018-05-04T17:07:50.502Z,21.30
2018-05-04T17:10:17.971Z,21.30
2018-05-04T17:12:45.472Z,21.30
2018-05-04T17:15:12.931Z,21.20
2018-05-04T17:17:41.461Z,21.20
2018-05-04T17:20:08.912Z,21.30
2018-05-04T17:22:36.402Z,21.30
2018-05-04T17:25:03.862Z,21.20
2018-05-04T17:27:32.115Z,21.10
2018-05-04T17:29:59.575Z,21.10
2018-05-04T17:32:27.833Z,21.20
2018-05-04T17:34:55.317Z,21.10
2018-05-04T17:37:22.878Z,21.20
2018-05-04T17:39:50.314Z,21.10
2018-05-04T17:42:17.786Z,21.00
2018-05-04T17:44:45.249Z,20.90
2018-05-04T17:47:13.561Z,20.90
2018-05-04T17:49:40.974Z,20.90
2018-05-04T17:52:09.212Z,20.70
2018-05-04T17:54:36.659Z,20.70
2018-05-04T17:57:04.898Z,20.60
2018-05-04T17:59:32.889Z,20.60
2018-05-04T18:02:00.358Z,20.50
2018-05-04T18:04:27.846Z,20.60
2018-05-04T18:06:55.327Z,20.50
2018-05-04T18:09:22.782Z,20.50
2018-05-04T18:11:50.838Z,20.40
2018-05-04T18:14:18.313Z,20.30
2018-05-04T18:16:45.773Z,20.30
2018-05-04T18:19:13.253Z,20.30
2018-05-04T18:21:40.714Z,20.40
2018-05-04T18:24:08.275Z,20.30
2018-05-04T18:26:35.730Z,20.30
2018-05-04T18:29:03.990Z,20.10
2018-05-04T18:31:31.465Z,20.10
2018-05-04T18:33:58.921Z,20.00
2018-05-04T18:36:27.145Z,19.80
2018-05-04T18:38:54.606Z,19.80
2018-05-04T18:41:22.074Z,19.70
2018-05-04T18:43:49.545Z,19.70
2018-05-04T18:46:17.016Z,19.60
2018-05-04T18:48:44.554Z,19.60
2018-05-04T18:51:12.006Z,19.60
2018-05-04T18:53:39.494Z,19.50
2018-05-04T18:56:07.719Z,19.40
2018-05-04T18:58:35.440Z,19.40
2018-05-04T19:03:38.382Z,19.50
2018-05-04T19:06:06.609Z,19.50
2018-05-04T19:08:34.182Z,19.50
2018-05-04T19:11:02.387Z,19.50
2018-05-04T19:13:30.643Z,19.60
2018-05-04T19:15:58.092Z,19.50
2018-05-04T19:18:25.541Z,19.60
2018-05-04T19:20:52.994Z,19.60
2018-05-04T19:23:20.458Z,19.60
2018-05-04T19:25:48.673Z,19.60
2018-05-04T19:28:16.149Z,19.60
2018-05-04T19:30:43.621Z,19.50
2018-05-04T19:33:11.863Z,19.30
2018-05-04T19:35:40.751Z,19.30
2018-05-04T19:38:08.212Z,19.30
2018-05-04T19:40:35.672Z,19.30
2018-05-04T19:43:03.132Z,19.20
2018-05-04T19:45:30.585Z,19.20
2018-05-04T19:47:58.040Z,19.20
2018-05-04T19:50:25.510Z,19.10
2018-05-04T19:52:52.978Z,19.10
2018-05-04T19:55:20.463Z,19.00
2018-05-04T19:57:47.918Z,19.00
2018-05-04T20:00:15.374Z,18.90
2018-05-04T20:02:43.707Z,18.90
2018-05-04T20:05:11.166Z,18.90
2018-05-04T20:07:38.656Z,18.90
2018-05-04T20:10:06.126Z,19.00
2018-05-04T20:12:33.589Z,19.10
2018-05-04T20:15:01.120Z,19.00
2018-05-04T20:17:28.582Z,18.90
2018-05-04T20:19:56.036Z,18.90
2018-05-04T20:22:23.518Z,18.90
2018-05-04T20:24:51.005Z,18.90
2018-05-04T20:27:18.462Z,18.90
2018-05-04T20:29:45.922Z,18.70
2018-05-04T20:32:14.162Z,18.70
2018-05-04T20:34:41.650Z,18.70
2018-05-04T20:37:09.104Z,18.80
2018-05-04T20:39:36.589Z,18.90
2018-05-04T20:42:04.068Z,19.00
2018-05-04T20:44:31.558Z,19.00
2018-05-04T20:46:59.039Z,18.80
2018-05-04T20:49:26.520Z,18.60
2018-05-04T20:51:54.030Z,18.50
2018-05-04T20:54:21.440Z,18.30
2018-05-04T20:56:48.899Z,18.30
2018-05-04T20:59:16.358Z,18.30
2018-05-04T21:01:44.577Z,18.30
2018-05-04T21:04:12.049Z,18.30
2018-05-04T21:06:39.503Z,18.30
2018-05-04T21:09:06.964Z,18.20
2018-05-04T21:11:34.431Z,18.30
2018-05-04T21:14:01.989Z,18.30
2018-05-04T21:16:29.406Z,18.30
2018-05-04T21:18:56.879Z,18.30
2018-05-04T21:21:24.346Z,18.20
2018-05-04T21:23:51.877Z,18.10
2018-05-04T21:26:19.377Z,18.10
2018-05-04T21:28:46.824Z,18.10
2018-05-04T21:31:14.284Z,18.10
2018-05-04T21:33:41.750Z,18.10
2018-05-04T21:36:09.223Z,18.00
2018-05-04T21:38:36.681Z,17.90
2018-05-04T21:41:04.898Z,17.80
2018-05-04T21:43:32.393Z,17.80
2018-05-04T21:45:59.845Z,17.70
2018-05-04T21:48:27.301Z,17.70
2018-05-04T21:50:54.838Z,17.60
2018-05-04T21:53:22.346Z,17.60
2018-05-04T21:55:50.582Z,17.70
2018-05-04T21:58:18.840Z,17.70
2018-05-04T22:00:46.301Z,17.70
2018-05-04T22:03:14.540Z,17.60
2018-05-04T22:05:42.020Z,17.60
2018-05-04T22:08:10.244Z,17.60
2018-05-04T22:10:37.710Z,17.60
2018-05-04T22:13:05.971Z,17.50
2018-05-04T22:15:33.448Z,17.50
2018-05-04T22:18:02.151Z,17.50
2018-05-04T22:20:29.609Z,17.50
2018-05-04T22:22:57.069Z,17.40
2018-05-04T22:25:24.523Z,17.40
2018-05-04T22:27:52.758Z,17.30
2018-05-04T22:30:20.222Z,17.30
2018-05-04T22:32:47.782Z,17.30
2018-05-04T22:35:16.069Z,17.30
2018-05-04T22:37:43.536Z,17.30
2018-05-04T22:40:10.995Z,17.20
2018-05-04T22:42:39.462Z,17.20
2018-05-04T22:45:07.025Z,17.20
2018-05-04T22:47:34.577Z,17.10
2018-05-04T22:50:02.113Z,17.20
2018-05-04T22:52:30.363Z,17.10
2018-05-04T22:54:57.860Z,17.10
2018-05-04T22:57:25.321Z,17.10
2018-05-04T22:59:52.793Z,17.10
2018-05-04T23:02:20.246Z,17.00
2018-05-04T23:04:47.737Z,16.90
2018-05-04T23:07:15.232Z,16.90
2018-05-04T23:09:42.723Z,16.90
2018-05-04T23:12:10.186Z,16.80
2018-05-04T23:14:37.643Z,16.70
2018-05-04T23:17:05.230Z,16.70
2018-05-04T23:19:33.462Z,16.50
2018-05-04T23:22:00.948Z,16.50
2018-05-04T23:24:28.403Z,16.50
2018-05-04T23:26:55.852Z,16.40
2018-05-04T23:29:23.313Z,16.40
2018-05-04T23:31:50.782Z,16.30
2018-05-04T23:34:19.023Z,16.40
2018-05-04T23:36:46.499Z,16.40
2018-05-04T23:39:13.949Z,16.40
2018-05-04T23:41:41.412Z,16.30
2018-05-04T23:44:08.871Z,16.10
2018-05-04T23:46:36.343Z,16.00
2018-05-04T23:49:03.875Z,16.00
2018-05-04T23:51:31.351Z,15.90
2018-05-04T23:53:58.806Z,15.80
2018-05-04T23:56:26.267Z,15.80
2018-05-04T23:58:53.718Z,15.70
